Time;durP1;ratioP1;P1;durP2;ratioP2;P2;SDS_P1;SDS_P2;PMS_P1;PMS_P2;Temp;Humidity;BMP_temperature;BMP_pressure;BME280_temperature;BME280_humidity;BME280_pressure;Samples;Min_cycle;Max_cycle;Signal;HPM_P1;HPM_P2
2024/01/17 09:05:32;;;;;;;17.38;10.38;;;-1.90;99.90;;;;;;6336436;22;20442;-94
2024/01/17 09:08:01;;;;;;;14.40;10.75;;;-2.90;99.90;;;;;;6287057;22;20015;-93
2024/01/17 09:10:29;;;;;;;13.32;9.82;;;-1.70;99.90;;;;;;6287405;22;20094;-93
2024/01/17 09:12:55;;;;;;;13.48;8.95;;;-0.30;99.90;;;;;;6287326;22;20106;-92
2024/01/17 09:15:26;;;;;;;16.33;10.80;;;-1.80;99.90;;;;;;6261816;22;20015;-93
2024/01/17 09:17:55;;;;;;;13.55;9.93;;;-0.50;99.90;;;;;;6287050;22;20015;-93
2024/01/17 09:20:23;;;;;;;13.98;9.50;;;-2.00;99.90;;;;;;6287279;22;20014;-92
2024/01/17 09:22:52;;;;;;;16.13;10.15;;;-0.70;99.90;;;;;;6312864;22;20011;-93
2024/01/17 09:25:18;;;;;;;16.17;10.00;;;-0.40;99.90;;;;;;6286681;22;20037;-92
2024/01/17 09:27:57;;;;;;;14.50;9.57;;;-1.70;99.90;;;;;;6286272;22;20454;-93
2024/01/17 09:30:26;;;;;;;14.48;9.65;;;-0.50;99.90;;;;;;6239197;22;20318;-92
2024/01/17 09:32:56;;;;;;;13.77;9.77;;;-0.30;99.90;;;;;;6286414;22;20079;-92
2024/01/17 09:36:01;;;;;;;;;;;;;;;;;;;;;
2024/01/17 09:38:30;;;;;;;14.70;9.82;;;-2.40;99.90;;;;;;6308586;22;20090;-92
2024/01/17 09:41:06;;;;;;;;;;;;;;;;;;;;;
2024/01/17 09:43:43;;;;;;;13.18;10.60;;;0.10;99.90;;;;;;6312580;22;20010;-92
2024/01/17 09:46:23;;;;;;;;;;;;;;;;;;;;;
2024/01/17 09:48:52;;;;;;;13.32;9.35;;;-1.30;99.90;;;;;;6311342;22;20011;-92
2024/01/17 09:51:23;;;;;;;15.32;10.27;;;-1.20;99.90;;;;;;6286026;22;20497;-92
2024/01/17 09:53:51;;;;;;;12.70;9.90;;;-1.10;99.90;;;;;;6285858;22;20400;-92
2024/01/17 09:56:25;;;;;;;14.35;9.32;;;-1.20;99.90;;;;;;6285670;22;20056;-95
2024/01/17 09:59:02;;;;;;;16.77;9.90;;;0.40;99.90;;;;;;6285772;22;20026;-93
2024/01/17 10:01:35;;;;;;;13.63;8.73;;;-1.10;99.90;;;;;;6286034;22;20454;-93
2024/01/17 10:04:03;;;;;;;14.93;8.85;;;-1.00;99.90;;;;;;6284912;22;20018;-92
2024/01/17 10:06:34;;;;;;;19.15;9.70;;;0.40;99.90;;;;;;6286418;22;20312;-93
2024/01/17 10:09:05;;;;;;;15.07;8.85;;;-0.90;99.90;;;;;;6284947;22;20020;-93
2024/01/17 10:11:33;;;;;;;15.32;9.88;;;-0.80;99.90;;;;;;6285649;22;20026;-93
2024/01/17 10:14:03;;;;;;;15.40;10.50;;;-0.80;99.90;;;;;;6285326;22;20011;-92
2024/01/17 10:16:32;;;;;;;13.45;9.25;;;-1.60;99.90;;;;;;6285883;22;20022;-92
2024/01/17 10:19:03;;;;;;;13.05;8.40;;;0.20;99.90;;;;;;6285195;22;20025;-92
2024/01/17 10:21:36;;;;;;;12.27;9.52;;;-0.80;99.90;;;;;;6311869;22;20022;-92
2024/01/17 10:24:07;;;;;;;15.27;9.50;;;-0.70;99.90;;;;;;6285030;22;20072;-92
2024/01/17 10:26:43;;;;;;;17.00;9.30;;;-0.80;99.90;;;;;;6286836;22;20015;-93
2024/01/17 10:29:17;;;;;;;13.40;9.68;;;-1.00;99.90;;;;;;6310743;22;20011;-92
2024/01/17 10:31:44;;;;;;;12.85;8.50;;;-0.70;99.90;;;;;;6285689;22;20401;-92
2024/01/17 10:34:12;;;;;;;13.18;8.48;;;0.20;99.90;;;;;;6310468;22;20011;-93
2024/01/17 10:36:47;;;;;;;13.43;8.65;;;-0.60;99.90;;;;;;6285445;22;20019;-92
2024/01/17 10:39:19;;;;;;;12.60;9.45;;;-0.60;99.90;;;;;;6284814;22;20023;-91
2024/01/17 10:42:10;;;;;;;12.30;8.57;;;0.80;99.90;;;;;;6285357;22;20019;-92
2024/01/17 10:44:38;;;;;;;13.32;7.97;;;-1.00;99.90;;;;;;6285434;22;20018;-92
2024/01/17 10:47:17;;;;;;;11.25;8.52;;;0.60;99.90;;;;;;6284890;22;20102;-92
2024/01/17 10:49:43;;;;;;;12.75;8.95;;;-0.70;99.90;;;;;;6285212;22;20018;-92
2024/01/17 10:52:18;;;;;;;12.23;8.65;;;1.10;99.90;;;;;;6310246;22;20511;-91
2024/01/17 10:54:50;;;;;;;11.55;8.60;;;-0.50;99.90;;;;;;6284536;22;20019;-92
2024/01/17 10:57:22;;;;;;;14.52;8.98;;;-1.50;99.90;;;;;;6309977;22;20017;-91
2024/01/17 10:59:50;;;;;;;11.32;8.40;;;0.60;99.90;;;;;;6285230;22;20014;-92
2024/01/17 11:02:20;;;;;;;13.82;9.27;;;0.60;99.90;;;;;;6259478;22;20025;-92
2024/01/17 11:05:04;;;;;;;14.55;9.40;;;-1.50;99.90;;;;;;6228988;22;20047;-92
2024/01/17 11:07:35;;;;;;;14.57;9.23;;;1.10;99.90;;;;;;6273577;22;20383;-92
2024/01/17 11:10:07;;;;;;;10.20;8.23;;;-1.40;99.90;;;;;;6278590;22;20015;-92
2024/01/17 11:12:44;;;;;;;12.70;8.65;;;-0.40;99.90;;;;;;6280193;22;20022;-92
2024/01/17 11:15:26;;;;;;;10.80;7.68;;;0.80;99.90;;;;;;5132664;27;1320905;-90
2024/01/17 11:17:56;;;;;;;12.65;8.05;;;0.70;99.90;;;;;;5175124;27;20067;-90
2024/01/17 11:20:25;;;;;;;12.82;7.95;;;-0.50;99.90;;;;;;5158010;27;20034;-90
2024/01/17 11:22:53;;;;;;;14.82;9.20;;;-0.30;99.90;;;;;;5157943;27;20034;-92
2024/01/17 11:25:27;;;;;;;13.60;8.90;;;-0.70;99.90;;;;;;5157461;27;20621;-92
2024/01/17 11:28:07;;;;;;;12.68;9.05;;;-0.60;99.90;;;;;;5156421;27;20047;-92
2024/01/17 11:31:09;;;;;;;16.40;9.70;;;-0.40;99.90;;;;;;5137740;27;20038;-92
2024/01/17 11:33:37;;;;;;;12.07;9.05;;;-0.50;99.90;;;;;;5137181;27;20479;-92
2024/01/17 11:36:05;;;;;;;11.70;8.23;;;0.60;99.90;;;;;;5137110;27;20065;-92
2024/01/17 11:38:32;;;;;;;12.05;8.45;;;-0.40;99.90;;;;;;5137431;27;20472;-92
2024/01/17 11:41:05;;;;;;;11.20;7.93;;;0.50;99.90;;;;;;5137095;27;20051;-92
2024/01/17 11:43:38;;;;;;;12.20;7.50;;;0.90;99.90;;;;;;5137662;27;20100;-92
2024/01/17 11:46:07;;;;;;;14.55;9.45;;;0.60;99.90;;;;;;5136776;27;20112;-92
2024/01/17 11:48:43;;;;;;;11.45;8.05;;;-0.40;99.90;;;;;;5137146;27;20043;-92
2024/01/17 11:51:14;;;;;;;11.77;7.82;;;1.00;99.90;;;;;;5103758;27;20046;-92
2024/01/17 11:53:53;;;;;;;11.73;8.40;;;-0.40;99.90;;;;;;5137552;27;20045;-92
2024/01/17 11:56:34;;;;;;;12.15;8.48;;;-0.50;99.90;;;;;;5153006;27;20094;-92
2024/01/17 11:59:11;;;;;;;15.90;9.52;;;-0.50;99.90;;;;;;5137094;27;20151;-92
2024/01/17 12:01:46;;;;;;;15.98;9.80;;;0.70;99.90;;;;;;5137303;27;20046;-92
2024/01/17 12:04:47;;;;;;;14.50;8.75;;;0.80;99.90;;;;;;5137004;27;20396;-92
2024/01/17 12:07:22;;;;;;;12.75;8.75;;;0.80;99.90;;;;;;5153127;27;20049;-92
2024/01/17 12:09:50;;;;;;;13.73;8.85;;;-0.30;99.90;;;;;;5119411;27;20369;-92
2024/01/17 12:12:21;;;;;;;12.40;8.55;;;-0.30;99.90;;;;;;5153247;27;20046;-92
2024/01/17 12:14:48;;;;;;;13.60;8.43;;;-1.30;99.90;;;;;;5135815;27;20068;-92
2024/01/17 12:17:16;;;;;;;14.23;9.23;;;0.70;99.90;;;;;;5170597;27;20039;-91
2024/01/17 12:19:53;;;;;;;14.25;7.63;;;0.70;99.90;;;;;;5136410;27;20046;-92
2024/01/17 12:22:22;;;;;;;12.07;8.77;;;-0.30;99.90;;;;;;5120298;27;20138;-92
2024/01/17 12:24:49;;;;;;;12.73;8.23;;;0.20;99.90;;;;;;5133929;27;20074;-92
2024/01/17 12:27:18;;;;;;;10.02;8.50;;;1.20;99.90;;;;;;5135524;27;20053;-92
2024/01/17 12:29:47;;;;;;;24.98;8.95;;;1.20;99.90;;;;;;5143291;27;20555;-92
2024/01/17 12:32:14;;;;;;;13.43;7.80;;;1.20;99.90;;;;;;5143395;27;20050;-92
2024/01/17 12:34:45;;;;;;;12.15;7.70;;;1.30;99.90;;;;;;5142742;27;20071;-91
2024/01/17 12:37:13;;;;;;;10.95;7.25;;;-0.50;99.90;;;;;;5142537;27;20038;-96
2024/01/17 12:39:41;;;;;;;11.48;8.70;;;0.30;99.90;;;;;;5160243;27;20047;-92
2024/01/17 12:42:16;;;;;;;11.13;7.93;;;-0.20;99.90;;;;;;5125784;27;20556;-92
2024/01/17 12:44:52;;;;;;;9.82;7.50;;;1.00;99.90;;;;;;5142811;27;20483;-92
2024/01/17 12:47:22;;;;;;;12.43;7.85;;;1.30;99.90;;;;;;5125353;27;20107;-92
2024/01/17 12:49:48;;;;;;;12.43;8.30;;;1.30;99.90;;;;;;5143033;27;20494;-92
2024/01/17 12:52:23;;;;;;;11.97;7.47;;;-0.30;99.90;;;;;;5142415;27;20128;-93
2024/01/17 12:54:53;;;;;;;12.52;8.15;;;-0.70;99.90;;;;;;5133380;27;20480;-92
2024/01/17 12:57:24;;;;;;;14.32;7.88;;;0.90;99.90;;;;;;5139035;27;20115;-93
2024/01/17 12:59:53;;;;;;;10.18;7.78;;;-0.30;99.90;;;;;;5139673;27;20177;-92
2024/01/17 13:02:26;;;;;;;11.02;8.95;;;0.90;99.90;;;;;;5121820;27;20043;-92
2024/01/17 13:05:13;;;;;;;11.60;10.20;;;-0.30;99.90;;;;;;5122207;27;20103;-92
2024/01/17 13:07:45;;;;;;;9.52;7.80;;;-0.90;99.90;;;;;;5138816;27;20091;-93
2024/01/17 13:10:20;;;;;;;11.18;7.72;;;-0.30;99.90;;;;;;5104967;27;20054;-92
2024/01/17 13:12:53;;;;;;;10.85;8.30;;;-0.30;99.90;;;;;;5139200;27;20050;-92
2024/01/17 13:15:22;;;;;;;9.82;7.75;;;1.00;99.90;;;;;;5121870;27;20090;-92
2024/01/17 13:18:02;;;;;;;17.93;10.93;;;1.10;99.90;;;;;;5122235;27;20039;-91
2024/01/17 13:20:28;;;;;;;10.23;8.43;;;1.10;99.90;;;;;;5121943;27;20288;-92
2024/01/17 13:23:04;;;;;;;10.77;8.65;;;0.90;99.90;;;;;;5122598;27;20047;-92
2024/01/17 13:25:36;;;;;;;12.27;9.20;;;1.10;99.90;;;;;;5138922;27;20046;-92
2024/01/17 13:28:10;;;;;;;11.30;7.82;;;-0.20;99.90;;;;;;5121646;27;20054;-92
2024/01/17 13:30:37;;;;;;;11.90;8.77;;;-0.20;99.90;;;;;;5139164;27;20114;-91
2024/01/17 13:33:09;;;;;;;;;;;0.70;99.90;;;;;;5104876;27;20441;-92
2024/01/17 13:35:48;;;;;;;18.17;8.27;;;-0.30;99.90;;;;;;5122078;27;19919;-92
2024/01/17 13:38:26;;;;;;;10.60;8.18;;;-0.40;99.90;;;;;;5104972;27;20046;-91
2024/01/17 13:40:57;;;;;;;12.20;7.93;;;0.00;99.90;;;;;;5105509;27;20054;-91
2024/01/17 13:43:25;;;;;;;10.48;7.93;;;-0.30;99.90;;;;;;5138160;27;20050;-92
2024/01/17 13:45:56;;;;;;;18.33;9.38;;;1.10;99.90;;;;;;5120973;27;20047;-92
2024/01/17 13:48:22;;;;;;;14.07;8.65;;;0.50;99.90;;;;;;5121802;27;20180;-91
2024/01/17 13:50:48;;;;;;;12.27;7.87;;;-0.20;99.90;;;;;;5120511;27;20112;-91
2024/01/17 13:53:31;;;;;;;14.63;8.27;;;-0.40;99.90;;;;;;5121205;27;20078;-91
2024/01/17 13:55:59;;;;;;;14.80;8.23;;;0.50;99.90;;;;;;5140908;27;20046;-91
2024/01/17 13:58:25;;;;;;;11.30;8.27;;;1.10;99.90;;;;;;5138004;27;20043;-91
2024/01/17 14:00:57;;;;;;;12.73;8.77;;;-0.10;99.90;;;;;;5120221;27;20054;-91
2024/01/17 14:03:26;;;;;;;11.60;8.32;;;1.00;99.90;;;;;;5137857;27;20056;-95
2024/01/17 14:05:55;;;;;;;10.35;7.75;;;-0.10;99.90;;;;;;5120921;27;20042;-91
2024/01/17 14:08:21;;;;;;;10.98;8.57;;;-0.20;99.90;;;;;;5120311;27;20506;-92
2024/01/17 14:10:47;;;;;;;11.40;6.70;;;1.20;99.90;;;;;;5120268;27;20167;-91
2024/01/17 14:13:17;;;;;;;9.87;7.80;;;0.90;99.90;;;;;;5120426;27;20046;-92
2024/01/17 14:15:46;;;;;;;14.02;8.85;;;1.10;99.90;;;;;;5116121;27;20051;-91
2024/01/17 14:18:17;;;;;;;16.35;8.73;;;1.40;99.90;;;;;;5100496;27;20396;-92
2024/01/17 14:20:43;;;;;;;11.57;8.05;;;0.70;99.90;;;;;;5134097;27;20393;-91
2024/01/17 14:23:09;;;;;;;10.67;8.20;;;-0.70;99.90;;;;;;5100654;27;20073;-91
2024/01/17 14:25:36;;;;;;;13.20;8.60;;;1.00;99.90;;;;;;5130576;27;20751;-92
2024/01/17 14:28:07;;;;;;;11.52;9.20;;;1.20;99.90;;;;;;5137458;27;20491;-91
2024/01/17 14:30:35;;;;;;;13.30;10.35;;;-0.30;99.90;;;;;;5137069;27;20075;-92
2024/01/17 14:33:01;;;;;;;12.40;8.35;;;-0.30;99.90;;;;;;5137265;27;20131;-92
2024/01/17 14:35:28;;;;;;;13.70;9.17;;;-0.20;99.90;;;;;;5120060;27;20134;-94
2024/01/17 14:37:59;;;;;;;29.02;21.17;;;-0.90;99.90;;;;;;5121329;27;20099;-91
2024/01/17 14:40:30;;;;;;;21.13;15.30;;;1.10;99.90;;;;;;5137225;27;20078;-92
2024/01/17 14:42:58;;;;;;;18.63;12.18;;;1.20;99.90;;;;;;5120899;27;20053;-92
2024/01/17 14:45:38;;;;;;;13.52;10.00;;;0.70;99.90;;;;;;5137565;27;20047;-91
2024/01/17 14:48:07;;;;;;;13.32;10.07;;;-1.00;99.90;;;;;;5136633;27;20129;-91
2024/01/17 14:50:33;;;;;;;15.43;10.00;;;-0.20;99.90;;;;;;5136389;27;20039;-91
2024/01/17 14:52:59;;;;;;;12.90;9.30;;;-0.10;99.90;;;;;;5102758;27;20134;-91
2024/01/17 14:55:25;;;;;;;12.50;8.70;;;0.50;99.90;;;;;;5126979;27;20079;-91
2024/01/17 14:57:50;;;;;;;13.90;10.13;;;-0.10;99.90;;;;;;5116201;27;20039;-91
2024/01/17 15:00:21;;;;;;;12.23;9.30;;;1.20;99.90;;;;;;5115993;27;20054;-90
2024/01/17 15:02:57;;;;;;;11.95;8.48;;;-0.10;99.90;;;;;;5115682;27;20134;-90
2024/01/17 15:05:26;;;;;;;15.77;8.65;;;1.20;99.90;;;;;;5116912;28;20069;-90
2024/01/17 15:08:00;;;;;;;14.63;9.20;;;1.10;99.90;;;;;;5116079;27;20043;-90
2024/01/17 15:10:30;;;;;;;13.65;9.63;;;-0.20;99.90;;;;;;5115962;28;20687;-91
2024/01/17 15:13:01;;;;;;;14.23;10.73;;;1.20;99.90;;;;;;5116009;28;20511;-91
2024/01/17 15:15:29;;;;;;;12.98;9.05;;;-0.10;99.90;;;;;;5099540;28;20090;-91
2024/01/17 15:18:00;;;;;;;15.00;9.05;;;1.10;99.90;;;;;;5115797;28;20497;-91
2024/01/17 15:20:28;;;;;;;19.20;10.18;;;0.20;99.90;;;;;;5082411;28;20270;-90
2024/01/17 15:23:11;;;;;;;;;;;;;;;;;;;;;
2024/01/17 15:25:39;;;;;;;12.35;9.63;;;-0.20;99.90;;;;;;5132951;27;20035;-91
2024/01/17 15:28:15;;;;;;;;;;;;;;;;;;;;;
2024/01/17 15:30:50;;;;;;;15.32;9.68;;;0.50;99.90;;;;;;5133105;28;20130;-91
2024/01/17 15:33:18;;;;;;;12.15;10.05;;;1.20;99.90;;;;;;5116287;28;20489;-90
2024/01/17 15:35:45;;;;;;;15.95;10.98;;;1.00;99.90;;;;;;5115869;28;20050;-91
2024/01/17 15:38:22;;;;;;;14.80;10.35;;;-0.20;99.90;;;;;;5100036;28;20048;-91
2024/01/17 15:41:05;;;;;;;;;;;;;;;;;;;;;
2024/01/17 15:43:44;;;;;;;12.95;9.52;;;1.00;99.90;;;;;;5133433;28;20054;-92
2024/01/17 15:46:22;;;;;;;16.13;10.35;;;0.80;99.90;;;;;;5100507;28;20095;-92
2024/01/17 15:48:53;;;;;;;12.80;9.55;;;-0.30;99.90;;;;;;5099349;28;20051;-92
2024/01/17 15:51:21;;;;;;;19.58;10.15;;;1.20;99.90;;;;;;5116321;28;20122;-92
2024/01/17 15:53:47;;;;;;;19.00;11.65;;;1.00;99.90;;;;;;5115351;28;20051;-93
2024/01/17 15:56:21;;;;;;;13.13;10.27;;;1.00;99.90;;;;;;5121439;27;20042;-92
2024/01/17 15:58:47;;;;;;;15.48;11.48;;;0.60;99.90;;;;;;5153624;27;20403;-92
2024/01/17 16:01:16;;;;;;;15.30;11.38;;;0.90;99.90;;;;;;5138877;27;20046;-92
2024/01/17 16:03:50;;;;;;;13.80;9.52;;;-0.40;99.90;;;;;;5123524;27;20049;-94
2024/01/17 16:06:16;;;;;;;14.88;10.75;;;1.00;99.90;;;;;;5140814;27;20051;-92
2024/01/17 16:08:47;;;;;;;13.20;10.13;;;0.60;99.90;;;;;;5140408;27;20213;-94
2024/01/17 16:11:13;;;;;;;13.18;10.00;;;0.90;99.90;;;;;;5139894;27;20058;-93
2024/01/17 16:13:44;;;;;;;17.20;10.13;;;0.80;99.90;;;;;;5140465;27;20039;-93
2024/01/17 16:16:33;;;;;;;;;;;;;;;;;;;;;
2024/01/17 16:18:59;;;;;;;15.13;10.10;;;-0.30;99.90;;;;;;5141907;27;20062;-92
2024/01/17 16:21:27;;;;;;;13.37;10.57;;;-0.20;99.90;;;;;;5140444;27;20477;-93
2024/01/17 16:23:58;;;;;;;16.15;10.80;;;-0.80;99.90;;;;;;5157350;27;20045;-92
2024/01/17 16:26:27;;;;;;;14.38;10.15;;;0.50;99.90;;;;;;5123012;27;20039;-93
2024/01/17 16:28:53;;;;;;;12.80;9.38;;;-0.40;99.90;;;;;;5119135;27;20047;-92
2024/01/17 16:31:19;;;;;;;14.83;10.20;;;-0.40;99.90;;;;;;5119085;27;20043;-92
2024/01/17 16:33:54;;;;;;;12.13;9.53;;;-0.40;99.90;;;;;;5119429;27;20130;-94
2024/01/17 16:36:19;;;;;;;17.88;12.23;;;-0.50;99.90;;;;;;5119412;27;20042;-92
2024/01/17 16:38:45;;;;;;;15.07;10.40;;;-0.60;99.90;;;;;;5119059;27;20066;-93
2024/01/17 16:41:17;;;;;;;15.00;10.60;;;-1.30;99.90;;;;;;5119469;27;20043;-92
2024/01/17 16:43:48;;;;;;;23.98;12.18;;;-0.40;99.90;;;;;;5119609;27;20550;-92
2024/01/17 16:46:14;;;;;;;19.23;12.30;;;-1.80;99.90;;;;;;5119293;27;20369;-93
2024/01/17 16:48:57;;;;;;;14.87;11.20;;;0.50;99.90;;;;;;5119025;27;20047;-92
2024/01/17 16:51:25;;;;;;;17.75;10.95;;;-1.30;99.90;;;;;;5119150;27;20051;-92
2024/01/17 16:53:56;;;;;;;17.40;12.98;;;-1.60;99.90;;;;;;5085280;27;20448;-93
2024/01/17 16:56:24;;;;;;;18.90;13.27;;;0.80;99.90;;;;;;5119439;27;20484;-92
2024/01/17 16:59:03;;;;;;;27.95;16.05;;;-1.10;99.90;;;;;;5118878;27;20039;-92
2024/01/17 17:01:41;;;;;;;;;;;;;;;;;;;;;
2024/01/17 17:04:14;;;;;;;19.35;14.57;;;-0.50;99.90;;;;;;5135934;27;20058;-92
2024/01/17 17:06:53;;;;;;;24.13;14.00;;;0.50;99.90;;;;;;5118662;27;20043;-94
2024/01/17 17:09:19;;;;;;;20.33;14.57;;;-0.50;99.90;;;;;;5118698;27;20072;-92
2024/01/17 17:11:47;;;;;;;18.83;13.13;;;-0.80;99.90;;;;;;5118887;27;20047;-92
2024/01/17 17:14:20;;;;;;;18.20;13.02;;;-0.40;99.90;;;;;;5117995;27;20059;-92
2024/01/17 17:16:55;;;;;;;15.63;11.65;;;-0.40;99.90;;;;;;5136308;27;20138;-92
2024/01/17 17:19:24;;;;;;;17.70;13.23;;;0.90;99.90;;;;;;5118868;27;20039;-92
2024/01/17 17:21:52;;;;;;;17.05;11.50;;;-0.60;99.90;;;;;;5118166;27;20039;-93
2024/01/17 17:24:19;;;;;;;17.58;12.95;;;0.10;99.90;;;;;;5117516;27;20050;-94
2024/01/17 17:26:49;;;;;;;20.42;13.32;;;0.90;99.90;;;;;;5137505;27;20050;-92
2024/01/17 17:29:25;;;;;;;19.90;14.45;;;-0.50;99.90;;;;;;5122326;27;20044;-93
2024/01/17 17:32:00;;;;;;;19.65;15.05;;;-0.50;99.90;;;;;;5139379;27;20467;-93
2024/01/17 17:34:33;;;;;;;22.00;13.00;;;0.90;99.90;;;;;;5138687;27;20129;-92
2024/01/17 17:36:59;;;;;;;19.40;14.25;;;-0.40;99.90;;;;;;5138699;27;20050;-93
2024/01/17 17:39:36;;;;;;;20.87;15.43;;;0.90;99.90;;;;;;5136126;27;20480;-93
2024/01/17 17:42:02;;;;;;;22.60;16.70;;;0.80;99.90;;;;;;5121459;27;20134;-93
2024/01/17 17:44:37;;;;;;;18.60;14.67;;;-0.20;99.90;;;;;;5121600;27;20127;-92
2024/01/17 17:47:05;;;;;;;21.15;14.55;;;0.80;99.90;;;;;;5105540;27;20043;-93
2024/01/17 17:49:32;;;;;;;19.17;14.15;;;-0.60;99.90;;;;;;5121471;27;20039;-93
2024/01/17 17:52:00;;;;;;;;;;;-0.50;99.90;;;;;;5138455;27;20038;-94
2024/01/17 17:54:26;;;;;;;;;;;-0.30;99.90;;;;;;5121882;27;19930;-93
2024/01/17 17:56:54;;;;;;;21.38;15.95;;;-0.60;99.90;;;;;;5137008;27;19919;-94
2024/01/17 17:59:24;;;;;;;23.63;16.55;;;-1.60;99.90;;;;;;5138047;27;20484;-93
2024/01/17 18:01:53;;;;;;;22.95;16.38;;;0.80;99.90;;;;;;5121901;27;20039;-94
2024/01/17 18:04:24;;;;;;;27.58;17.67;;;0.80;99.90;;;;;;5138097;27;20085;-93
2024/01/17 18:06:54;;;;;;;25.25;17.80;;;0.60;99.90;;;;;;5138738;27;20136;-93
2024/01/17 18:09:28;;;;;;;30.58;21.23;;;0.30;99.90;;;;;;5138060;27;20077;-93
2024/01/17 18:12:03;;;;;;;34.40;21.83;;;-1.40;99.90;;;;;;5155368;27;20134;-93
2024/01/17 18:14:37;;;;;;;34.47;22.77;;;-0.60;99.90;;;;;;5138496;27;20051;-93
2024/01/17 18:17:06;;;;;;;28.85;20.45;;;-0.80;99.90;;;;;;5121468;27;20391;-93
2024/01/17 18:19:41;;;;;;;30.23;21.42;;;0.80;99.90;;;;;;5138227;27;20043;-94
2024/01/17 18:25:04;;;;;;;27.52;21.15;;;0.20;99.90;;;;;;5155343;27;20085;-95
2024/01/17 18:27:53;;;;;;;23.13;19.65;;;-0.60;99.90;;;;;;5138588;27;20050;-93
2024/01/17 18:30:22;;;;;;;25.25;18.50;;;-0.50;99.90;;;;;;5137987;27;20085;-93
2024/01/17 18:32:50;;;;;;;23.88;17.95;;;-0.70;99.90;;;;;;5137895;27;20051;-93
2024/01/17 18:35:28;;;;;;;21.63;15.98;;;-0.60;99.90;;;;;;5138028;27;20042;-94
2024/01/17 18:37:54;;;;;;;23.38;17.75;;;0.20;99.90;;;;;;5138734;27;20038;-94
2024/01/17 18:40:25;;;;;;;28.77;20.70;;;0.80;99.90;;;;;;5121110;27;20544;-93
2024/01/17 18:42:51;;;;;;;28.17;20.58;;;-0.70;99.90;;;;;;5120569;27;20043;-93
2024/01/17 18:45:17;;;;;;;28.43;19.87;;;-0.50;99.90;;;;;;5120315;27;20125;-93
2024/01/17 18:47:44;;;;;;;24.00;17.97;;;0.10;99.90;;;;;;5120290;27;20552;-93
2024/01/17 18:50:14;;;;;;;;;;;-0.20;99.90;;;;;;5137312;27;20587;-94
2024/01/17 18:52:43;;;;;;;24.98;17.83;;;-0.40;99.90;;;;;;5135594;27;19938;-93
2024/01/17 18:55:12;;;;;;;28.60;18.63;;;0.70;99.90;;;;;;5136882;27;20039;-93
2024/01/17 18:57:53;;;;;;;23.52;16.52;;;-0.10;99.90;;;;;;5120823;27;20089;-93
2024/01/17 19:00:31;;;;;;;;;;;;;;;;;;;;;
2024/01/17 19:03:08;;;;;;;23.90;16.27;;;0.80;99.90;;;;;;5154839;27;20042;-93
2024/01/17 19:05:45;;;;;;;20.77;16.27;;;0.30;99.90;;;;;;5137503;27;20080;-93
2024/01/17 19:08:14;;;;;;;23.50;17.47;;;-0.60;99.90;;;;;;5137350;27;20047;-93
2024/01/17 19:10:42;;;;;;;27.75;18.92;;;0.00;99.90;;;;;;5137384;27;20123;-94
2024/01/17 19:13:33;;;;;;;26.35;20.23;;;-0.60;99.90;;;;;;5120271;27;20046;-96
2024/01/17 19:16:02;;;;;;;33.25;23.23;;;0.60;99.90;;;;;;5137076;27;20464;-93
2024/01/17 19:18:35;;;;;;;33.83;26.13;;;-0.50;99.90;;;;;;5136682;27;20058;-93
2024/01/17 19:21:10;;;;;;;36.63;25.10;;;0.80;99.90;;;;;;5137845;27;20043;-93
2024/01/17 19:23:46;;;;;;;31.40;23.75;;;-0.60;99.90;;;;;;5146521;27;20050;-93
2024/01/17 19:26:12;;;;;;;28.15;22.27;;;-0.60;99.90;;;;;;5116390;28;20045;-94
2024/01/17 19:28:47;;;;;;;35.33;25.85;;;-0.50;99.90;;;;;;5116764;28;20051;-93
2024/01/17 19:31:52;;;;;;;;;;;;;;;;;;;;;
2024/01/17 19:34:29;;;;;;;25.75;19.60;;;-0.60;99.90;;;;;;5117462;27;20500;-94
2024/01/17 19:37:10;;;;;;;27.17;19.30;;;0.60;99.90;;;;;;5087385;27;20050;-94
2024/01/17 19:39:48;;;;;;;28.23;20.67;;;-1.60;99.90;;;;;;5121605;27;20096;-93
2024/01/17 19:42:20;;;;;;;28.58;20.38;;;0.40;99.90;;;;;;5120695;27;20090;-92
2024/01/17 19:44:49;;;;;;;31.02;20.80;;;-0.30;99.90;;;;;;5103570;27;20492;-93
2024/01/17 19:47:26;;;;;;;27.80;21.75;;;0.40;99.90;;;;;;5119789;27;20508;-95
2024/01/17 19:49:58;;;;;;;28.95;21.20;;;0.70;99.90;;;;;;5106239;27;20392;-93
2024/01/17 19:52:27;;;;;;;30.65;21.42;;;0.50;99.90;;;;;;5103015;27;20043;-94
2024/01/17 19:54:58;;;;;;;27.50;20.52;;;1.00;99.90;;;;;;5107204;27;20043;-94
2024/01/17 19:57:35;;;;;;;29.70;20.55;;;-0.40;99.90;;;;;;5103552;27;20057;-94
2024/01/17 20:00:03;;;;;;;27.52;20.77;;;0.80;99.90;;;;;;5104680;27;20039;-94
2024/01/17 20:02:41;;;;;;;26.58;20.40;;;0.90;99.90;;;;;;5119767;27;20054;-94
2024/01/17 20:05:14;;;;;;;;;;;-0.60;99.90;;;;;;5120699;27;20043;-94
2024/01/17 20:07:40;;;;;;;24.92;19.30;;;-0.60;99.90;;;;;;5120063;27;20033;-94
2024/01/17 20:10:07;;;;;;;25.90;18.10;;;-0.70;99.90;;;;;;5119743;27;20086;-94
2024/01/17 20:12:58;;;;;;;24.67;18.77;;;-0.80;99.90;;;;;;5119792;27;20364;-93
2024/01/17 20:15:47;;;;;;;23.02;19.17;;;0.70;99.90;;;;;;5119054;27;20399;-94
2024/01/17 20:21:20;;;;;;;34.97;24.35;;;0.40;99.90;;;;;;5146065;27;20039;-94
2024/01/17 20:23:51;;;;;;;31.40;23.02;;;-0.80;99.90;;;;;;5129408;27;20042;-94
2024/01/17 20:26:42;;;;;;;31.65;22.67;;;-0.90;99.90;;;;;;5123286;27;20047;-94
2024/01/17 20:29:16;;;;;;;32.15;23.92;;;-0.90;99.90;;;;;;5126930;27;20089;-94
2024/01/17 20:31:57;;;;;;;;;;;;;;;;;;;;;
2024/01/17 20:34:36;;;;;;;29.30;21.25;;;0.50;99.90;;;;;;5157047;27;20039;-94
2024/01/17 20:37:17;;;;;;;27.08;20.30;;;0.10;99.90;;;;;;5140505;27;20050;-94
2024/01/17 20:39:46;;;;;;;32.97;24.02;;;-1.20;99.90;;;;;;5122760;27;20058;-93
2024/01/17 20:42:16;;;;;;;25.45;19.65;;;-1.30;99.90;;;;;;5140317;27;20168;-93
2024/01/17 20:44:57;;;;;;;26.63;21.38;;;-1.20;99.90;;;;;;5123752;27;20047;-93
2024/01/17 20:47:25;;;;;;;27.08;21.83;;;-1.10;99.90;;;;;;5123254;27;20491;-95
2024/01/17 20:49:57;;;;;;;26.85;22.30;;;-1.10;99.90;;;;;;5139911;27;20034;-95
2024/01/17 20:52:33;;;;;;;34.03;24.42;;;-0.80;99.90;;;;;;5140266;27;20476;-94
2024/01/17 20:55:02;;;;;;;36.60;24.48;;;-0.10;99.90;;;;;;5121271;27;20079;-94
2024/01/17 20:57:49;;;;;;;;;;;;;;;;;;;;;
2024/01/17 21:00:28;;;;;;;38.78;27.42;;;-1.40;99.90;;;;;;5121295;27;20434;-93
2024/01/17 21:02:56;;;;;;;38.03;26.05;;;-1.70;99.90;;;;;;5103632;27;20442;-93
2024/01/17 21:05:48;;;;;;;31.83;24.83;;;-1.00;99.90;;;;;;5103222;27;20052;-96
2024/01/17 21:08:19;;;;;;;31.10;23.35;;;-0.30;99.90;;;;;;5121660;27;20039;-93
2024/01/17 21:11:10;;;;;;;35.30;25.27;;;-0.10;99.90;;;;;;5118422;27;20043;-93
2024/01/17 21:13:39;;;;;;;36.90;24.98;;;-1.20;99.90;;;;;;5104847;27;20061;-93
2024/01/17 21:16:25;;;;;;;39.53;29.33;;;0.00;99.90;;;;;;5118161;27;20492;-93
2024/01/17 21:19:03;;;;;;;34.25;23.00;;;-2.20;99.90;;;;;;5106122;27;20104;-93
2024/01/17 21:21:43;;;;;;;30.48;23.55;;;-1.40;99.90;;;;;;5101321;27;20039;-95
2024/01/17 21:24:19;;;;;;;40.80;25.63;;;-1.30;99.90;;;;;;5118849;27;20046;-93
2024/01/17 21:26:50;;;;;;;32.25;22.52;;;0.20;99.90;;;;;;5117750;27;20097;-94
2024/01/17 21:29:27;;;;;;;28.75;20.52;;;-1.20;99.90;;;;;;5119233;27;20047;-94
2024/01/17 21:32:01;;;;;;;27.77;22.40;;;-1.30;99.90;;;;;;5118051;27;20125;-94
2024/01/17 21:34:35;;;;;;;29.70;22.13;;;0.20;99.90;;;;;;5086464;27;20043;-94
2024/01/17 21:37:18;;;;;;;26.60;19.25;;;0.30;99.90;;;;;;5118175;27;20036;-92
2024/01/17 21:39:44;;;;;;;24.80;19.30;;;0.10;99.90;;;;;;5086370;27;20095;-93
2024/01/17 21:42:22;;;;;;;22.80;17.77;;;-0.60;99.90;;;;;;5118320;27;20043;-92
2024/01/17 21:45:00;;;;;;;32.03;22.00;;;-1.10;99.90;;;;;;5102551;27;20049;-93
2024/01/17 21:47:28;;;;;;;;;;;-1.20;99.90;;;;;;5118695;27;20039;-93
2024/01/17 21:49:56;;;;;;;;;;;0.30;99.90;;;;;;5101124;27;19919;-92
2024/01/17 21:52:25;;;;;;;27.33;19.90;;;0.30;99.90;;;;;;5118080;27;19919;-93
2024/01/17 21:54:51;;;;;;;27.58;20.48;;;0.00;99.90;;;;;;5116863;27;20622;-92
2024/01/17 21:57:19;;;;;;;27.50;19.93;;;-1.20;99.90;;;;;;5117542;27;20055;-93
2024/01/17 21:59:45;;;;;;;26.52;19.55;;;-1.20;99.90;;;;;;5099870;27;20058;-92
2024/01/17 22:02:49;;;;;;;28.70;19.30;;;-1.30;99.90;;;;;;5109092;27;20043;-93
2024/01/17 22:05:20;;;;;;;27.23;18.13;;;-0.20;99.90;;;;;;5127052;27;20055;-93
2024/01/17 22:07:56;;;;;;;27.20;19.73;;;-1.40;99.90;;;;;;5100867;27;20089;-93
2024/01/17 22:10:22;;;;;;;22.05;17.58;;;-1.30;99.90;;;;;;5117763;27;20043;-92
2024/01/17 22:12:51;;;;;;;23.73;16.95;;;-0.10;99.90;;;;;;5117628;27;20519;-93
2024/01/17 22:15:17;;;;;;;23.33;17.90;;;-1.40;99.90;;;;;;5116788;27;20055;-93
2024/01/17 22:17:50;;;;;;;24.70;16.40;;;-0.20;99.90;;;;;;5116883;27;20333;-93
2024/01/17 22:20:21;;;;;;;26.80;16.67;;;-0.70;99.90;;;;;;5101600;27;20061;-92
2024/01/17 22:22:58;;;;;;;19.17;15.43;;;-0.50;99.90;;;;;;5122665;27;20400;-92
2024/01/17 22:25:32;;;;;;;23.50;16.10;;;-1.40;99.90;;;;;;5106778;27;20038;-92
2024/01/17 22:28:08;;;;;;;21.85;15.20;;;-0.10;99.90;;;;;;5137349;27;20043;-93